Terminal Aerodrome Forecast
Issued by NWS

Home | Current Version | Previous Version | Text Only | Print | Product List | Glossary On
Versions: 1 2 3 4 5 6 7 8 9 10 11 12 13 14 15 16 17 18 19 20 21 22 23
494
FTUS41 KPHI 291130
TAFPNE
TAF
KPNE 291130Z 2912/3012 VRB03KT P6SM SCT025 BKN150
      TEMPO 2912/2913 3SM BR
     FM291300 24007KT P6SM -SHRA SCT050 BKN150
      TEMPO 2913/2915 TSRA BKN050CB
     FM291600 27012G18KT P6SM SCT050 BKN150
     FM292200 30008KT P6SM -SHRA SCT050 BKN150 PROB30 2922/2924 4SM
      TSRA BKN050CB
     FM300300 01006KT P6SM BKN150
     FM300500 04006KT 5SM BR OVC015=

USA.gov is the U.S. government's official web portal to all federal, state and local government web resources and services.